Time;durP1;ratioP1;P1;durP2;ratioP2;P2;SDS_P1;SDS_P2;PMS_P1;PMS_P2;Temp;Humidity;BMP_temperature;BMP_pressure;BME280_temperature;BME280_humidity;BME280_pressure;Samples;Min_cycle;Max_cycle;Signal;HPM_P1;HPM_P2
2022/01/31 00:00:39;;;;;;;2.40;0.90;;;;;;;1.61;69.45;99156.73;105184;1282;22646;-76
2022/01/31 00:03:06;;;;;;;3.50;0.90;;;;;;;1.56;69.21;99157.39;105415;1281;25385;-75
2022/01/31 00:05:33;;;;;;;1.40;0.80;;;;;;;1.51;69.29;99155.28;105358;1281;22657;-75
2022/01/31 00:08:00;;;;;;;3.20;0.90;;;;;;;1.51;69.63;99162.55;105362;1281;22880;-72
2022/01/31 00:10:29;;;;;;;2.70;1.60;;;;;;;1.51;69.36;99170.20;105284;1282;25376;-70
2022/01/31 00:15:25;;;;;;;3.40;1.40;;;;;;;1.43;68.93;99150.36;105174;1285;24770;-72
2022/01/31 00:17:52;;;;;;;3.30;1.30;;;;;;;1.42;68.49;99158.67;105011;1285;25488;-79
2022/01/31 00:20:19;;;;;;;3.80;1.70;;;;;;;1.42;68.36;99163.35;104950;1285;23958;-79
2022/01/31 00:22:46;;;;;;;1.60;1.00;;;;;;;1.41;68.24;99167.52;105079;1284;22566;-77
2022/01/31 00:25:13;;;;;;;2.30;1.00;;;;;;;1.42;68.59;99174.48;104845;1288;24222;-74
2022/01/31 00:27:41;;;;;;;1.10;0.50;;;;;;;1.42;68.24;99170.46;104102;1294;25292;-75
2022/01/31 00:30:09;;;;;;;3.40;0.80;;;;;;;1.38;68.02;99168.36;104087;1294;25546;-76
2022/01/31 00:32:36;;;;;;;1.10;0.70;;;;;;;1.36;68.25;99169.39;104106;1294;24317;-75
2022/01/31 00:35:05;;;;;;;3.20;0.70;;;;;;;1.35;68.14;99159.14;104516;1290;24452;-76
2022/01/31 00:37:32;;;;;;;1.60;0.90;;;;;;;1.34;68.27;99162.42;104462;1290;22582;-73
2022/01/31 00:39:59;;;;;;;3.50;1.00;;;;;;;1.37;68.51;99164.19;104001;1296;22660;-73
2022/01/31 00:42:27;;;;;;;1.70;0.80;;;;;;;1.41;68.54;99169.95;103957;1296;22805;-73
2022/01/31 00:45:09;;;;;;;5.70;1.00;;;;;;;1.46;68.73;99165.13;104170;1293;22640;-74
2022/01/31 00:47:39;;;;;;;1.80;0.70;;;;;;;1.48;68.61;99169.48;104688;1288;25258;-74
2022/01/31 00:50:09;;;;;;;2.20;0.90;;;;;;;1.50;68.82;99165.51;104719;1287;23514;-76
2022/01/31 00:52:39;;;;;;;2.10;0.80;;;;;;;1.54;68.60;99173.52;104825;1288;22624;-75
2022/01/31 00:55:09;;;;;;;1.60;0.90;;;;;;;1.54;68.45;99178.72;104558;1287;24247;-71
2022/01/31 00:57:36;;;;;;;2.60;0.80;;;;;;;1.56;68.64;99179.77;104346;1285;22731;-73
2022/01/31 01:00:05;;;;;;;2.50;0.90;;;;;;;1.61;68.41;99186.41;105149;1287;22565;-75
2022/01/31 01:02:32;;;;;;;1.60;0.70;;;;;;;1.63;68.05;99185.91;104886;1285;22594;-74
2022/01/31 01:05:00;;;;;;;1.20;0.70;;;;;;;1.60;67.83;99186.23;105044;1285;22618;-72
2022/01/31 01:07:27;;;;;;;5.40;1.80;;;;;;;1.59;68.02;99185.02;105033;1285;24596;-73
2022/01/31 01:09:54;;;;;;;4.00;1.20;;;;;;;1.59;67.98;99196.13;104758;1285;22585;-73
2022/01/31 01:12:21;;;;;;;3.40;1.30;;;;;;;1.52;67.55;99187.73;104956;1285;22571;-76
2022/01/31 01:14:49;;;;;;;3.10;1.50;;;;;;;1.44;67.85;99202.42;104965;1287;23963;-72
2022/01/31 01:17:17;;;;;;;2.00;1.00;;;;;;;1.41;68.06;99208.29;105449;1281;22573;-77
2022/01/31 01:19:45;;;;;;;2.40;0.90;;;;;;;1.39;67.65;99213.82;105096;1284;24305;-76
2022/01/31 01:22:12;;;;;;;1.40;0.80;;;;;;;1.33;67.50;99217.25;105279;1281;24313;-73
2022/01/31 01:24:41;;;;;;;2.20;0.90;;;;;;;1.30;67.17;99227.09;105289;1281;22571;-74
2022/01/31 01:27:10;;;;;;;1.30;0.90;;;;;;;1.27;66.97;99224.45;105658;1281;22555;-73
2022/01/31 01:29:37;;;;;;;2.10;1.00;;;;;;;1.22;66.76;99231.88;105516;1282;23943;-71
2022/01/31 01:32:05;;;;;;;1.40;0.60;;;;;;;1.20;66.28;99227.33;105129;1287;24248;-70
2022/01/31 01:34:34;;;;;;;3.10;1.20;;;;;;;1.20;65.96;99222.65;105121;1285;25713;-77
2022/01/31 01:37:03;;;;;;;3.30;0.90;;;;;;;1.17;65.57;99231.13;104968;1285;22625;-76
2022/01/31 01:39:32;;;;;;;2.70;1.00;;;;;;;1.14;65.55;99226.23;105079;1287;25399;-76
2022/01/31 01:41:59;;;;;;;3.20;1.00;;;;;;;1.15;65.31;99226.94;105027;1287;25276;-76
2022/01/31 01:44:53;;;;;;;2.70;1.20;;;;;;;1.14;65.42;99234.04;105223;1285;23000;-75
2022/01/31 01:47:24;;;;;;;3.30;1.00;;;;;;;1.13;65.54;99231.77;105936;1285;23502;-74
2022/01/31 01:49:53;;;;;;;2.20;1.10;;;;;;;1.11;65.39;99226.21;107308;1282;22653;-75
2022/01/31 01:52:24;;;;;;;3.10;1.30;;;;;;;1.07;65.19;99226.86;106654;1281;22578;-74
2022/01/31 01:54:51;;;;;;;3.50;1.80;;;;;;;1.06;65.23;99232.04;107677;1281;25282;-75
2022/01/31 01:57:22;;;;;;;5.50;2.30;;;;;;;1.06;65.24;99226.67;106346;1281;25325;-75
2022/01/31 01:59:56;;;;;;;3.80;1.70;;;;;;;1.04;65.24;99236.02;107849;1281;22574;-72
2022/01/31 02:02:43;;;;;;;4.90;2.10;;;;;;;1.05;65.35;99229.77;106231;1281;25268;-75
2022/01/31 02:05:14;;;;;;;1.90;1.00;;;;;;;1.05;64.96;99229.95;105589;1281;25256;-76
2022/01/31 02:07:42;;;;;;;7.20;2.10;;;;;;;1.03;64.67;99226.81;104878;1287;25291;-75
2022/01/31 02:10:12;;;;;;;4.60;2.50;;;;;;;1.02;64.93;99220.21;104603;1288;25332;-71
2022/01/31 02:12:54;;;;;;;4.60;2.10;;;;;;;1.03;65.06;99216.59;104803;1287;22564;-71
2022/01/31 02:15:32;;;;;;;2.70;1.10;;;;;;;1.04;64.83;99220.76;104777;1287;25414;-73
2022/01/31 02:18:22;;;;;;;3.00;1.30;;;;;;;1.05;65.00;99226.48;104800;1288;22719;-73
2022/01/31 02:20:49;;;;;;;1.50;0.90;;;;;;;1.05;65.06;99224.05;104702;1288;23025;-77
2022/01/31 02:23:18;;;;;;;3.40;1.70;;;;;;;1.06;65.14;99223.89;104751;1288;26551;-75
2022/01/31 02:26:16;;;;;;;2.40;1.10;;;;;;;1.05;65.06;99223.36;105062;1282;22562;-78
2022/01/31 02:28:58;;;;;;;2.30;1.00;;;;;;;1.02;65.29;99220.03;105585;1281;22569;-77
2022/01/31 02:31:25;;;;;;;3.80;1.30;;;;;;;1.00;65.91;99217.42;105164;1281;25369;-76
2022/01/31 02:33:52;;;;;;;3.00;1.10;;;;;;;1.03;66.02;99225.77;105427;1281;22695;-79
2022/01/31 02:36:19;;;;;;;3.10;0.90;;;;;;;1.05;66.09;99218.85;105251;1281;25566;-76
2022/01/31 02:38:46;;;;;;;1.40;0.80;;;;;;;1.02;66.52;99220.03;105352;1281;24759;-74
2022/01/31 02:41:13;;;;;;;3.00;1.30;;;;;;;1.04;66.93;99221.10;105424;1281;26696;-73
2022/01/31 02:43:40;;;;;;;3.60;1.20;;;;;;;1.06;67.22;99216.42;105305;1283;25427;-77
2022/01/31 02:46:12;;;;;;;2.00;0.60;;;;;;;1.06;68.19;99214.70;105745;1281;25271;-76
2022/01/31 02:48:40;;;;;;;2.00;0.90;;;;;;;1.04;68.53;99216.59;105390;1281;24286;-71
2022/01/31 02:51:10;;;;;;;2.00;0.90;;;;;;;1.03;69.04;99220.05;105349;1281;23447;-75
2022/01/31 02:53:41;;;;;;;6.30;2.20;;;;;;;0.97;69.71;99217.92;105424;1281;22730;-75
2022/01/31 02:56:09;;;;;;;7.30;3.00;;;;;;;0.92;69.70;99210.58;105368;1281;22583;-77
2022/01/31 02:58:36;;;;;;;8.90;3.60;;;;;;;0.87;69.89;99205.83;104986;1285;23947;-73
2022/01/31 03:01:04;;;;;;;10.20;3.60;;;;;;;0.87;70.22;99201.67;104862;1287;22583;-72
2022/01/31 03:03:42;;;;;;;13.20;5.20;;;;;;;0.87;70.25;99209.31;104228;1291;25480;-74
2022/01/31 03:06:10;;;;;;;11.70;4.10;;;;;;;0.91;70.47;99217.14;104411;1291;23308;-77
2022/01/31 03:08:39;;;;;;;6.40;2.30;;;;;;;0.99;70.83;99214.30;104085;1291;25472;-77
2022/01/31 03:11:14;;;;;;;4.00;1.60;;;;;;;1.02;71.12;99206.17;104333;1291;25282;-73
2022/01/31 03:13:52;;;;;;;7.60;3.10;;;;;;;0.98;71.31;99200.23;104139;1291;22641;-72
2022/01/31 03:16:19;;;;;;;6.90;2.80;;;;;;;0.94;71.70;99199.16;104105;1291;24097;-72
2022/01/31 03:19:04;;;;;;;7.90;3.30;;;;;;;0.89;71.97;99202.23;104659;1290;23997;-75
2022/01/31 03:21:32;;;;;;;6.50;3.20;;;;;;;0.90;72.13;99207.77;104621;1287;26538;-76
2022/01/31 03:24:00;;;;;;;7.90;3.50;;;;;;;0.88;72.38;99214.00;104235;1293;25399;-74
2022/01/31 03:26:27;;;;;;;7.90;3.50;;;;;;;0.95;72.66;99212.16;104239;1293;26292;-75
2022/01/31 03:28:54;;;;;;;6.00;2.90;;;;;;;1.00;72.70;99212.74;104303;1293;24233;-73
2022/01/31 03:31:21;;;;;;;6.90;2.40;;;;;;;1.07;72.92;99213.52;103909;1296;22586;-75
2022/01/31 03:33:50;;;;;;;3.80;1.70;;;;;;;1.14;72.71;99215.14;103836;1296;24129;-74
2022/01/31 03:36:18;;;;;;;2.50;1.30;;;;;;;1.09;72.48;99215.27;104611;1290;23965;-74
2022/01/31 03:38:46;;;;;;;3.10;1.20;;;;;;;1.04;72.53;99211.56;104039;1297;25283;-73
2022/01/31 03:41:23;;;;;;;4.50;1.70;;;;;;;1.08;72.93;99210.92;104088;1297;22849;-74
2022/01/31 03:43:50;;;;;;;2.30;1.30;;;;;;;1.13;72.78;99225.88;104287;1291;22610;-75
2022/01/31 03:46:18;;;;;;;4.00;1.40;;;;;;;1.21;73.08;99207.75;104564;1290;24267;-76
2022/01/31 03:48:46;;;;;;;3.40;1.20;;;;;;;1.32;73.02;99205.61;104420;1290;25322;-76
2022/01/31 03:51:26;;;;;;;2.00;1.10;;;;;;;1.30;72.67;99207.48;104733;1287;25366;-71
2022/01/31 03:53:53;;;;;;;4.30;1.50;;;;;;;1.28;73.06;99219.95;104167;1290;25321;-73
2022/01/31 03:56:20;;;;;;;6.60;2.10;;;;;;;1.19;73.05;99223.18;104467;1287;25270;-73
2022/01/31 03:58:57;;;;;;;6.20;2.60;;;;;;;1.04;73.04;99210.70;104120;1293;22713;-76
2022/01/31 04:01:26;;;;;;;6.10;2.50;;;;;;;1.03;73.16;99200.64;103920;1296;25326;-76
2022/01/31 04:03:53;;;;;;;5.40;2.20;;;;;;;1.03;72.87;99204.29;104110;1296;22907;-78
2022/01/31 04:06:20;;;;;;;6.20;2.00;;;;;;;1.05;72.79;99197.53;103959;1296;22741;-75
2022/01/31 04:08:46;;;;;;;9.00;2.30;;;;;;;1.08;72.84;99210.73;103922;1296;22506;-74
2022/01/31 04:11:13;;;;;;;4.80;1.40;;;;;;;1.08;72.76;99215.27;104015;1290;25333;-77
2022/01/31 04:13:41;;;;;;;5.00;2.30;;;;;;;1.05;72.55;99207.07;104258;1291;25386;-74
2022/01/31 04:16:08;;;;;;;5.30;1.60;;;;;;;1.08;72.70;99196.35;104464;1291;22734;-75
2022/01/31 04:18:35;;;;;;;5.70;1.60;;;;;;;1.12;72.17;99185.81;104803;1287;22624;-75
2022/01/31 04:21:02;;;;;;;7.60;1.80;;;;;;;1.11;71.76;99190.48;105594;1281;25336;-76
2022/01/31 04:23:29;;;;;;;9.90;2.00;;;;;;;1.10;71.46;99186.49;105336;1281;25557;-73
2022/01/31 04:26:06;;;;;;;9.30;2.40;;;;;;;1.06;71.27;99204.30;105327;1281;22553;-72
2022/01/31 04:28:42;;;;;;;8.40;2.70;;;;;;;1.07;71.56;99216.45;105377;1281;25275;-74
2022/01/31 04:31:26;;;;;;;12.40;3.30;;;;;;;1.08;71.61;99202.60;105564;1281;25271;-73
2022/01/31 04:33:53;;;;;;;10.70;2.20;;;;;;;1.11;71.35;99200.02;105600;1281;22716;-73
2022/01/31 04:36:20;;;;;;;12.10;2.70;;;;;;;1.09;71.36;99193.41;105565;1281;25518;-73
2022/01/31 04:38:49;;;;;;;9.40;2.30;;;;;;;1.10;71.11;99189.45;105211;1281;22572;-73
2022/01/31 04:41:16;;;;;;;10.50;3.30;;;;;;;1.08;71.01;99185.27;105263;1281;25284;-77
2022/01/31 04:43:46;;;;;;;8.40;3.50;;;;;;;1.04;71.09;99193.70;105058;1282;22569;-75
2022/01/31 04:46:14;;;;;;;9.00;2.30;;;;;;;0.99;71.16;99196.42;105258;1281;25299;-73
2022/01/31 04:48:44;;;;;;;10.60;2.80;;;;;;;0.94;71.17;99190.66;105303;1281;23934;-76
2022/01/31 04:51:13;;;;;;;9.90;2.50;;;;;;;0.93;71.33;99192.56;105668;1281;22706;-75
2022/01/31 04:53:40;;;;;;;11.00;2.90;;;;;;;0.91;71.27;99192.01;105325;1281;22633;-75
2022/01/31 04:56:07;;;;;;;9.30;3.20;;;;;;;0.84;71.37;99186.90;105380;1282;25380;-72
2022/01/31 04:58:34;;;;;;;13.50;3.30;;;;;;;0.81;71.54;99194.84;105864;1281;22566;-74
2022/01/31 05:01:01;;;;;;;9.60;3.20;;;;;;;0.76;71.58;99195.14;105603;1282;26718;-74
2022/01/31 05:03:30;;;;;;;7.20;3.10;;;;;;;0.73;71.66;99192.86;105362;1281;22551;-72
2022/01/31 05:05:57;;;;;;;9.10;2.90;;;;;;;0.72;71.79;99198.91;105637;1281;25494;-75
2022/01/31 05:08:27;;;;;;;11.00;3.10;;;;;;;0.70;71.83;99195.94;105625;1281;23964;-76
2022/01/31 05:10:54;;;;;;;7.30;3.00;;;;;;;0.69;71.87;99198.02;105649;1281;24248;-76
2022/01/31 05:13:23;;;;;;;8.80;3.00;;;;;;;0.70;71.89;99195.08;105424;1281;22693;-77
2022/01/31 05:15:53;;;;;;;9.50;2.70;;;;;;;0.69;71.89;99191.61;105369;1281;22557;-76
2022/01/31 05:18:21;;;;;;;8.70;2.50;;;;;;;0.69;71.84;99186.92;105367;1281;23158;-77
2022/01/31 05:20:47;;;;;;;12.10;2.70;;;;;;;0.67;71.81;99188.80;105303;1281;22620;-76
2022/01/31 05:23:14;;;;;;;10.70;3.40;;;;;;;0.64;71.85;99190.67;105482;1281;22583;-74
2022/01/31 05:25:42;;;;;;;10.60;2.50;;;;;;;0.61;71.75;99191.14;105292;1281;23948;-72
2022/01/31 05:28:09;;;;;;;6.40;2.30;;;;;;;0.58;71.85;99187.98;105174;1282;25400;-73
2022/01/31 05:30:36;;;;;;;10.10;2.70;;;;;;;0.57;71.89;99181.05;105316;1281;24364;-72
2022/01/31 05:33:03;;;;;;;8.80;2.80;;;;;;;0.60;71.99;99186.46;105168;1281;24277;-72
2022/01/31 05:35:30;;;;;;;13.30;2.90;;;;;;;0.60;71.90;99175.90;105088;1285;22574;-73
2022/01/31 05:38:01;;;;;;;9.00;3.10;;;;;;;0.60;72.01;99172.77;105088;1285;22566;-74
2022/01/31 05:40:28;;;;;;;16.80;3.80;;;;;;;0.61;72.06;99166.71;104608;1290;22827;-73
2022/01/31 05:42:56;;;;;;;11.00;3.80;;;;;;;0.63;72.15;99168.30;104558;1290;24278;-74
2022/01/31 05:45:23;;;;;;;10.20;3.00;;;;;;;0.59;71.84;99171.38;104666;1290;22740;-77
2022/01/31 05:47:50;;;;;;;11.90;3.10;;;;;;;0.54;71.96;99170.63;104486;1290;24341;-76
2022/01/31 05:50:16;;;;;;;10.10;3.00;;;;;;;0.51;71.96;99171.98;105105;1290;22697;-74
2022/01/31 05:52:43;;;;;;;14.40;3.70;;;;;;;0.48;72.07;99170.40;106021;1290;23966;-75
2022/01/31 05:55:13;;;;;;;11.90;3.30;;;;;;;0.47;72.16;99159.81;105752;1287;24183;-72
2022/01/31 05:57:42;;;;;;;13.10;3.70;;;;;;;0.47;72.32;99163.45;106577;1287;22746;-75
2022/01/31 06:00:10;;;;;;;6.60;2.90;;;;;;;0.47;72.32;99161.73;107660;1281;22502;-74
2022/01/31 06:02:39;;;;;;;8.10;3.10;;;;;;;0.44;72.33;99160.65;107763;1281;25326;-72
2022/01/31 06:05:08;;;;;;;7.90;3.70;;;;;;;0.41;72.39;99164.41;106220;1281;25241;-73
2022/01/31 06:07:35;;;;;;;10.40;3.50;;;;;;;0.38;72.39;99161.60;105012;1287;25474;-77
2022/01/31 06:10:03;;;;;;;12.10;3.70;;;;;;;0.37;72.52;99161.24;104821;1287;22701;-75
2022/01/31 06:12:30;;;;;;;12.10;3.40;;;;;;;0.36;72.61;99160.02;104862;1290;24314;-75
2022/01/31 06:14:58;;;;;;;11.40;3.30;;;;;;;0.32;72.47;99164.65;104031;1293;25284;-74
2022/01/31 06:17:25;;;;;;;16.50;4.70;;;;;;;0.28;72.60;99163.90;103972;1294;22563;-74
2022/01/31 06:19:51;;;;;;;13.40;3.80;;;;;;;0.26;72.65;99163.19;103944;1294;24456;-72
2022/01/31 06:22:18;;;;;;;8.20;2.90;;;;;;;0.27;72.78;99171.17;104174;1293;25550;-75
2022/01/31 06:24:45;;;;;;;11.00;3.70;;;;;;;0.27;72.60;99174.10;104200;1294;25348;-76
2022/01/31 06:27:16;;;;;;;11.30;3.80;;;;;;;0.25;72.53;99169.41;104616;1290;22705;-76
2022/01/31 06:29:46;;;;;;;10.70;3.50;;;;;;;0.24;72.72;99165.41;104580;1290;22576;-73
2022/01/31 06:32:25;;;;;;;11.10;3.40;;;;;;;0.25;72.53;99170.63;104754;1284;22576;-73
2022/01/31 06:34:53;;;;;;;10.30;4.40;;;;;;;0.26;72.74;99172.20;105349;1284;23981;-77
2022/01/31 06:37:20;;;;;;;14.60;4.00;;;;;;;0.28;72.36;99170.14;105400;1284;22741;-75
2022/01/31 06:39:47;;;;;;;10.90;3.70;;;;;;;0.30;72.50;99175.52;104691;1288;22787;-77
2022/01/31 06:42:15;;;;;;;12.10;3.50;;;;;;;0.26;72.32;99167.69;104680;1288;24786;-76
2022/01/31 06:44:42;;;;;;;8.60;4.00;;;;;;;0.23;72.25;99158.48;104506;1291;25367;-73
2022/01/31 06:47:09;;;;;;;13.20;3.80;;;;;;;0.21;72.31;99142.34;103825;1297;25509;-77
2022/01/31 06:49:36;;;;;;;8.20;3.60;;;;;;;0.26;72.12;99149.51;103789;1299;22684;-78
2022/01/31 06:52:04;;;;;;;8.40;3.60;;;;;;;0.26;72.01;99146.90;103976;1296;22780;-77
2022/01/31 06:54:31;;;;;;;8.00;3.30;;;;;;;0.23;71.49;99143.92;104199;1296;23773;-77
2022/01/31 06:57:00;;;;;;;9.70;3.30;;;;;;;0.20;71.54;99140.42;104062;1297;22545;-74
2022/01/31 06:59:27;;;;;;;9.70;2.40;;;;;;;0.19;71.68;99138.50;104709;1293;22536;-76
2022/01/31 07:01:59;;;;;;;13.70;3.00;;;;;;;0.21;71.66;99142.86;105265;1290;22535;-75
2022/01/31 07:04:26;;;;;;;8.20;3.40;;;;;;;0.23;71.74;99146.88;105087;1290;22647;-75
2022/01/31 07:06:54;;;;;;;9.20;3.00;;;;;;;0.29;71.80;99146.08;105121;1285;22576;-76
2022/01/31 07:09:22;;;;;;;12.10;4.00;;;;;;;0.32;71.50;99143.34;104665;1285;24310;-76
2022/01/31 07:11:52;;;;;;;8.80;4.10;;;;;;;0.34;71.32;99146.14;104992;1285;22570;-75
2022/01/31 07:14:31;;;;;;;9.70;3.40;;;;;;;0.37;71.47;99149.45;104865;1285;22619;-74
2022/01/31 07:17:01;;;;;;;6.40;2.70;;;;;;;0.42;71.47;99151.63;104970;1285;23108;-76
2022/01/31 07:19:31;;;;;;;10.60;2.50;;;;;;;0.43;71.28;99146.95;104711;1287;22589;-78
2022/01/31 07:21:59;;;;;;;16.10;3.40;;;;;;;0.43;71.31;99140.89;105090;1285;24429;-76
2022/01/31 07:27:04;;;;;;;15.10;4.30;;;;;;;0.40;71.47;99147.92;105070;1284;22566;-76
2022/01/31 07:29:31;;;;;;;17.00;4.10;;;;;;;0.40;71.62;99147.41;105586;1281;24811;-81
2022/01/31 07:31:58;;;;;;;19.20;3.60;;;;;;;0.42;71.64;99143.98;105321;1281;22707;-74
2022/01/31 07:34:26;;;;;;;10.60;3.90;;;;;;;0.47;71.57;99139.37;105319;1281;24439;-73
2022/01/31 07:36:53;;;;;;;9.70;3.70;;;;;;;0.54;71.63;99138.05;105555;1279;22564;-77
2022/01/31 07:39:21;;;;;;;11.80;3.90;;;;;;;0.58;71.58;99138.96;105859;1279;22634;-75
2022/01/31 07:41:48;;;;;;;10.10;3.20;;;;;;;0.61;71.40;99141.95;105514;1281;22576;-76
2022/01/31 07:44:15;;;;;;;9.70;3.50;;;;;;;0.60;71.27;99142.11;105419;1282;22648;-78
2022/01/31 07:46:43;;;;;;;7.70;3.30;;;;;;;0.60;71.39;99136.05;105625;1279;24259;-73
2022/01/31 07:49:11;;;;;;;8.80;3.00;;;;;;;0.59;71.21;99133.25;105659;1281;24233;-76
2022/01/31 07:51:40;;;;;;;11.70;3.00;;;;;;;0.56;71.16;99134.09;105710;1281;22571;-75
2022/01/31 07:54:09;;;;;;;13.00;3.30;;;;;;;0.54;71.26;99127.15;105397;1282;22702;-75
2022/01/31 07:56:37;;;;;;;10.70;3.50;;;;;;;0.56;71.41;99126.98;105764;1279;22570;-75
2022/01/31 07:59:04;;;;;;;14.30;3.20;;;;;;;0.58;71.26;99122.16;105406;1283;22746;-75
2022/01/31 08:01:31;;;;;;;14.40;4.00;;;;;;;0.54;71.22;99123.50;105689;1277;22853;-78
2022/01/31 08:03:59;;;;;;;8.80;3.30;;;;;;;0.50;71.16;99124.33;105645;1279;22588;-75
2022/01/31 08:06:26;;;;;;;10.30;2.60;;;;;;;0.45;71.15;99120.81;105410;1279;22579;-76
2022/01/31 08:08:54;;;;;;;8.50;3.00;;;;;;;0.44;71.26;99117.51;105163;1285;22662;-75
2022/01/31 08:11:31;;;;;;;10.70;3.40;;;;;;;0.42;71.47;99123.35;105000;1285;22625;-80
2022/01/31 08:14:02;;;;;;;14.60;3.90;;;;;;;0.42;71.49;99124.40;104508;1290;22566;-76
2022/01/31 08:16:29;;;;;;;7.30;2.80;;;;;;;0.43;71.49;99125.30;104306;1291;25425;-75
2022/01/31 08:18:56;;;;;;;10.90;3.60;;;;;;;0.43;71.43;99126.86;104318;1291;26550;-73
2022/01/31 08:21:24;;;;;;;9.60;3.50;;;;;;;0.42;71.47;99126.50;103815;1297;22614;-84
2022/01/31 08:23:52;;;;;;;10.50;3.20;;;;;;;0.43;71.56;99127.53;103638;1299;22621;-73
2022/01/31 08:26:22;;;;;;;9.60;3.30;;;;;;;0.44;71.50;99120.45;103443;1297;25549;-76
2022/01/31 08:28:58;;;;;;;8.30;3.90;;;;;;;0.47;71.46;99120.15;103878;1296;24051;-75
2022/01/31 08:31:35;;;;;;;8.80;3.30;;;;;;;0.50;71.10;99115.85;103355;1302;23093;-73
2022/01/31 08:35:47;;;;;;;7.00;3.70;;;;;;;0.47;71.00;99113.73;103495;1299;24296;-75
2022/01/31 08:36:53;;;;;;;10.70;3.60;;;;;;;0.48;70.94;99115.64;103345;1298;515199;-73
2022/01/31 08:39:22;;;;;;;8.30;3.30;;;;;;;0.47;70.95;99111.48;103770;1296;22602;-74
2022/01/31 08:41:51;;;;;;;13.40;3.70;;;;;;;0.50;70.96;99105.45;104196;1293;22750;-75
2022/01/31 08:44:22;;;;;;;7.30;3.60;;;;;;;0.52;70.99;99101.14;103907;1293;22588;-75
2022/01/31 08:46:51;;;;;;;7.00;2.60;;;;;;;0.58;70.95;99098.95;104059;1293;25934;-75
2022/01/31 08:49:18;;;;;;;6.60;2.80;;;;;;;0.61;70.73;99102.27;104731;1282;24356;-74
2022/01/31 08:51:47;;;;;;;15.40;4.00;;;;;;;0.65;70.63;99104.21;105352;1281;25263;-74
2022/01/31 08:54:15;;;;;;;10.20;3.70;;;;;;;0.69;70.54;99106.00;105215;1282;22696;-76
2022/01/31 08:56:47;;;;;;;14.50;3.60;;;;;;;0.72;70.56;99105.49;105268;1281;22630;-75
2022/01/31 08:59:18;;;;;;;9.10;3.20;;;;;;;0.76;70.44;99104.68;105218;1282;22625;-76
2022/01/31 09:01:53;;;;;;;10.50;3.30;;;;;;;0.76;70.15;99100.00;105193;1282;22722;-75
2022/01/31 09:05:04;;;;;;;12.90;4.00;;;;;;;0.79;70.24;99102.62;105552;1281;24268;-75
2022/01/31 09:07:12;;;;;;;13.20;4.50;;;;;;;0.82;70.27;99100.40;105377;1281;25324;-75
2022/01/31 09:09:39;;;;;;;6.80;3.50;;;;;;;0.86;70.14;99101.14;105133;1281;23236;-76
2022/01/31 09:12:08;;;;;;;13.80;4.10;;;;;;;0.85;70.00;99101.64;105246;1281;25380;-76
2022/01/31 09:14:36;;;;;;;7.40;3.20;;;;;;;0.90;70.06;99101.01;105100;1282;22634;-76
2022/01/31 09:17:03;;;;;;;15.60;4.10;;;;;;;0.93;69.91;99095.99;105137;1281;25373;-78
2022/01/31 09:19:30;;;;;;;12.00;3.70;;;;;;;0.98;69.73;99093.27;105143;1282;22670;-75
2022/01/31 09:21:59;;;;;;;10.10;3.10;;;;;;;1.01;69.28;99094.85;105208;1281;26533;-77
2022/01/31 09:24:26;;;;;;;6.20;3.50;;;;;;;1.05;69.10;99092.63;105375;1281;26672;-74
2022/01/31 09:26:54;;;;;;;8.90;3.00;;;;;;;1.04;68.76;99084.13;105319;1281;25334;-72
2022/01/31 09:29:21;;;;;;;12.90;3.60;;;;;;;1.02;68.68;99083.06;105242;1281;24233;-75
2022/01/31 09:31:48;;;;;;;7.90;3.10;;;;;;;1.03;68.52;99079.63;105219;1281;24265;-74
2022/01/31 09:34:16;;;;;;;13.60;4.10;;;;;;;0.94;68.40;99077.64;104989;1285;24125;-72
2022/01/31 09:36:43;;;;;;;13.20;3.00;;;;;;;0.93;68.94;99071.21;104906;1285;24882;-77
2022/01/31 09:39:11;;;;;;;8.70;3.20;;;;;;;1.06;69.10;99073.73;104813;1286;22572;-73
2022/01/31 09:41:41;;;;;;;9.30;3.20;;;;;;;1.16;68.64;99061.67;104992;1285;26845;-74
2022/01/31 09:44:16;;;;;;;10.50;3.60;;;;;;;1.32;68.15;99060.23;105015;1285;22568;-76
2022/01/31 09:46:52;;;;;;;10.10;3.90;;;;;;;1.44;67.46;99056.50;105368;1285;22688;-74
2022/01/31 09:49:22;;;;;;;12.20;3.90;;;;;;;1.49;66.88;99049.93;105079;1290;25594;-75
2022/01/31 09:51:50;;;;;;;10.60;3.20;;;;;;;1.57;66.48;99041.14;105865;1287;25393;-73
2022/01/31 09:54:17;;;;;;;11.60;4.00;;;;;;;1.69;66.35;99034.78;105921;1287;25254;-75
2022/01/31 09:56:47;;;;;;;10.20;3.40;;;;;;;1.76;65.79;99030.14;105286;1285;22575;-74
2022/01/31 09:59:17;;;;;;;10.90;3.90;;;;;;;1.81;65.42;99028.75;106149;1285;25945;-75
2022/01/31 10:02:10;;;;;;;9.00;2.90;;;;;;;1.94;65.34;99030.89;106457;1285;22580;-74
2022/01/31 10:04:43;;;;;;;6.60;2.30;;;;;;;2.00;64.59;99026.06;105412;1290;23772;-75
2022/01/31 10:07:13;;;;;;;12.90;3.50;;;;;;;2.03;64.46;99025.38;104958;1293;24259;-75
2022/01/31 10:09:43;;;;;;;10.20;2.70;;;;;;;2.03;64.18;99017.04;104360;1296;24591;-75
2022/01/31 10:12:29;;;;;;;7.80;2.90;;;;;;;2.18;63.96;99020.39;103780;1297;25580;-77
2022/01/31 10:17:45;;;;;;;8.40;3.10;;;;;;;2.22;62.51;99020.05;103810;1296;22567;-77
2022/01/31 10:20:17;;;;;;;10.40;3.80;;;;;;;2.17;62.31;99013.27;103776;1296;23958;-72
2022/01/31 10:22:46;;;;;;;9.00;3.50;;;;;;;2.24;62.64;99015.70;103807;1296;26545;-76
2022/01/31 10:25:16;;;;;;;10.30;3.60;;;;;;;2.41;63.17;99020.80;104282;1290;24446;-75
2022/01/31 10:28:20;;;;;;;10.60;4.10;;;;;;;2.46;62.76;99018.71;104387;1285;25433;-74
2022/01/31 10:30:51;;;;;;;8.40;2.80;;;;;;;2.35;62.35;99023.38;104615;1290;23337;-75
2022/01/31 10:33:25;;;;;;;8.30;2.80;;;;;;;2.21;61.14;99018.13;104267;1290;24123;-74
2022/01/31 10:35:53;;;;;;;8.90;3.00;;;;;;;2.07;61.27;99007.84;104388;1291;25392;-76
2022/01/31 10:38:30;;;;;;;6.20;2.30;;;;;;;2.02;60.97;99000.36;104328;1291;24284;-75
2022/01/31 10:52:08;;;;;;;9.80;3.50;;;;;;;2.15;59.82;98999.19;104683;1290;22723;-76
2022/01/31 10:57:13;;;;;;;5.90;2.50;;;;;;;2.10;59.95;98996.23;104764;1290;23021;-75
2022/01/31 10:59:46;;;;;;;5.80;2.40;;;;;;;2.13;60.46;98990.49;104693;1290;25501;-76
2022/01/31 11:02:15;;;;;;;8.90;3.40;;;;;;;2.16;60.02;98986.17;104477;1291;22893;-76
2022/01/31 11:04:44;;;;;;;10.90;3.00;;;;;;;2.26;60.30;98980.80;104054;1296;24836;-71
2022/01/31 11:07:18;;;;;;;7.60;2.60;;;;;;;2.32;60.37;98978.04;103712;1299;24219;-73
2022/01/31 11:09:46;;;;;;;6.40;2.30;;;;;;;2.25;58.72;98977.48;103671;1297;22569;-76
2022/01/31 11:12:13;;;;;;;7.70;2.20;;;;;;;2.19;58.27;98968.98;103898;1294;25531;-75
2022/01/31 11:14:45;;;;;;;8.80;2.30;;;;;;;2.00;57.91;98978.48;104242;1293;24339;-73
2022/01/31 11:17:17;;;;;;;7.30;2.30;;;;;;;1.99;58.12;98979.34;104225;1293;25356;-74
2022/01/31 11:19:49;;;;;;;6.60;2.10;;;;;;;2.09;57.90;98980.23;103899;1294;22592;-76
2022/01/31 11:22:26;;;;;;;6.00;2.10;;;;;;;2.31;58.26;98982.02;104004;1288;22730;-74
2022/01/31 11:25:14;;;;;;;9.80;2.90;;;;;;;2.67;58.14;98978.41;104943;1285;22519;-73
2022/01/31 11:27:48;;;;;;;8.60;3.30;;;;;;;3.09;57.88;98973.52;105132;1285;23961;-74
2022/01/31 11:30:15;;;;;;;6.20;2.10;;;;;;;3.41;57.61;98978.15;104390;1290;22945;-74
2022/01/31 11:32:45;;;;;;;5.60;2.60;;;;;;;3.57;55.55;98974.09;104358;1290;25512;-77
2022/01/31 11:35:13;;;;;;;7.70;2.50;;;;;;;3.79;55.37;98975.07;104185;1293;22599;-76
2022/01/31 11:37:40;;;;;;;7.00;1.70;;;;;;;3.92;54.57;98980.06;104399;1290;22686;-75
2022/01/31 11:40:11;;;;;;;4.70;2.00;;;;;;;4.03;53.12;98980.70;104432;1291;22757;-74
2022/01/31 11:42:44;;;;;;;3.40;1.70;;;;;;;4.24;53.20;98975.38;104515;1290;25285;-78
2022/01/31 11:45:35;;;;;;;6.40;2.10;;;;;;;4.48;51.83;98981.30;104940;1287;24051;-85
2022/01/31 11:48:11;;;;;;;4.50;1.50;;;;;;;4.47;50.21;98986.02;104473;1288;26655;-82
2022/01/31 11:50:53;;;;;;;3.70;1.50;;;;;;;4.42;51.00;98984.83;105176;1288;22714;-82
2022/01/31 11:53:35;;;;;;;6.20;1.60;;;;;;;4.39;50.98;98978.23;104675;1294;22524;-83
2022/01/31 11:56:17;;;;;;;5.00;1.80;;;;;;;4.24;50.81;98982.50;105721;1299;22606;-79
2022/01/31 11:58:51;;;;;;;3.00;1.40;;;;;;;4.03;51.46;98982.61;106858;1298;22715;-83
2022/01/31 12:01:21;;;;;;;4.20;1.60;;;;;;;3.90;51.25;98975.36;106659;1296;22584;-84
2022/01/31 12:03:50;;;;;;;5.80;1.80;;;;;;;3.89;51.54;98980.59;105874;1299;24343;-84
2022/01/31 12:06:34;;;;;;;4.80;1.80;;;;;;;4.02;51.35;98981.76;105166;1298;25393;-81